sensor_id;sensor_type;location;lat;lon;timestamp;P1;durP1;ratioP1;P2;durP2;ratioP2
68050;SDS011;54839;51.364;7.246;2023-12-20T00:00:55;4.03;;;3.60;;
68050;SDS011;54839;51.364;7.246;2023-12-20T00:03:21;8.37;;;6.80;;
68050;SDS011;54839;51.364;7.246;2023-12-20T00:05:47;9.80;;;7.80;;
68050;SDS011;54839;51.364;7.246;2023-12-20T00:08:13;11.07;;;7.40;;
68050;SDS011;54839;51.364;7.246;2023-12-20T00:10:38;14.03;;;8.97;;
68050;SDS011;54839;51.364;7.246;2023-12-20T00:13:04;12.23;;;9.50;;
68050;SDS011;54839;51.364;7.246;2023-12-20T00:15:29;12.43;;;11.13;;
68050;SDS011;54839;51.364;7.246;2023-12-20T00:17:55;15.40;;;12.13;;
68050;SDS011;54839;51.364;7.246;2023-12-20T00:20:20;15.43;;;11.97;;
68050;SDS011;54839;51.364;7.246;2023-12-20T00:22:46;16.57;;;11.47;;
68050;SDS011;54839;51.364;7.246;2023-12-20T00:25:12;16.03;;;12.67;;
68050;SDS011;54839;51.364;7.246;2023-12-20T00:27:37;14.60;;;11.40;;
68050;SDS011;54839;51.364;7.246;2023-12-20T00:30:03;15.07;;;13.17;;
68050;SDS011;54839;51.364;7.246;2023-12-20T00:32:29;18.70;;;12.97;;
68050;SDS011;54839;51.364;7.246;2023-12-20T00:34:54;18.80;;;12.17;;
68050;SDS011;54839;51.364;7.246;2023-12-20T00:37:20;15.97;;;14.30;;
68050;SDS011;54839;51.364;7.246;2023-12-20T00:39:45;17.43;;;13.80;;
68050;SDS011;54839;51.364;7.246;2023-12-20T00:42:11;18.27;;;13.20;;
68050;SDS011;54839;51.364;7.246;2023-12-20T00:44:36;11.10;;;7.60;;
68050;SDS011;54839;51.364;7.246;2023-12-20T00:47:02;12.60;;;9.23;;
68050;SDS011;54839;51.364;7.246;2023-12-20T00:49:28;16.93;;;12.07;;
68050;SDS011;54839;51.364;7.246;2023-12-20T00:51:53;14.70;;;11.00;;
68050;SDS011;54839;51.364;7.246;2023-12-20T00:54:19;16.27;;;12.70;;
68050;SDS011;54839;51.364;7.246;2023-12-20T00:56:44;13.20;;;9.67;;
68050;SDS011;54839;51.364;7.246;2023-12-20T00:59:10;15.30;;;10.70;;
68050;SDS011;54839;51.364;7.246;2023-12-20T01:01:35;17.33;;;10.90;;
68050;SDS011;54839;51.364;7.246;2023-12-20T01:04:01;17.30;;;11.30;;
68050;SDS011;54839;51.364;7.246;2023-12-20T01:06:27;14.13;;;9.87;;
68050;SDS011;54839;51.364;7.246;2023-12-20T01:08:52;13.37;;;9.10;;
68050;SDS011;54839;51.364;7.246;2023-12-20T01:11:18;14.27;;;9.30;;
68050;SDS011;54839;51.364;7.246;2023-12-20T01:13:43;15.23;;;9.73;;
68050;SDS011;54839;51.364;7.246;2023-12-20T01:16:10;13.10;;;8.77;;
68050;SDS011;54839;51.364;7.246;2023-12-20T01:18:36;19.40;;;11.53;;
68050;SDS011;54839;51.364;7.246;2023-12-20T01:21:02;13.60;;;9.10;;
68050;SDS011;54839;51.364;7.246;2023-12-20T01:23:28;11.47;;;8.90;;
68050;SDS011;54839;51.364;7.246;2023-12-20T01:25:54;10.63;;;8.27;;
68050;SDS011;54839;51.364;7.246;2023-12-20T01:28:20;16.13;;;9.10;;
68050;SDS011;54839;51.364;7.246;2023-12-20T01:30:45;15.00;;;8.97;;
68050;SDS011;54839;51.364;7.246;2023-12-20T01:33:11;12.33;;;8.83;;
68050;SDS011;54839;51.364;7.246;2023-12-20T01:35:36;11.37;;;8.67;;
68050;SDS011;54839;51.364;7.246;2023-12-20T01:38:02;8.50;;;6.60;;
68050;SDS011;54839;51.364;7.246;2023-12-20T01:40:28;15.20;;;8.37;;
68050;SDS011;54839;51.364;7.246;2023-12-20T01:43:00;12.13;;;8.17;;
68050;SDS011;54839;51.364;7.246;2023-12-20T01:45:36;10.77;;;5.67;;
68050;SDS011;54839;51.364;7.246;2023-12-20T01:48:02;14.27;;;8.17;;
68050;SDS011;54839;51.364;7.246;2023-12-20T01:50:30;11.20;;;7.70;;
68050;SDS011;54839;51.364;7.246;2023-12-20T01:52:56;14.00;;;7.57;;
68050;SDS011;54839;51.364;7.246;2023-12-20T01:55:25;13.83;;;8.87;;
68050;SDS011;54839;51.364;7.246;2023-12-20T01:57:52;9.87;;;7.33;;
68050;SDS011;54839;51.364;7.246;2023-12-20T02:00:18;11.73;;;7.50;;
68050;SDS011;54839;51.364;7.246;2023-12-20T02:02:48;9.20;;;6.80;;
68050;SDS011;54839;51.364;7.246;2023-12-20T02:05:15;10.10;;;6.80;;
68050;SDS011;54839;51.364;7.246;2023-12-20T02:07:41;13.97;;;9.37;;
68050;SDS011;54839;51.364;7.246;2023-12-20T02:10:07;16.53;;;9.50;;
68050;SDS011;54839;51.364;7.246;2023-12-20T02:12:33;15.40;;;8.53;;
68050;SDS011;54839;51.364;7.246;2023-12-20T02:14:58;18.23;;;9.40;;
68050;SDS011;54839;51.364;7.246;2023-12-20T02:17:24;13.93;;;9.17;;
68050;SDS011;54839;51.364;7.246;2023-12-20T02:19:50;16.37;;;10.07;;
68050;SDS011;54839;51.364;7.246;2023-12-20T02:22:16;16.43;;;9.97;;
68050;SDS011;54839;51.364;7.246;2023-12-20T02:24:41;10.00;;;7.80;;
68050;SDS011;54839;51.364;7.246;2023-12-20T02:27:07;13.53;;;9.17;;
68050;SDS011;54839;51.364;7.246;2023-12-20T02:29:34;13.27;;;6.87;;
68050;SDS011;54839;51.364;7.246;2023-12-20T02:32:00;12.53;;;8.40;;
68050;SDS011;54839;51.364;7.246;2023-12-20T02:34:26;19.17;;;6.53;;
68050;SDS011;54839;51.364;7.246;2023-12-20T02:36:51;10.53;;;6.07;;
68050;SDS011;54839;51.364;7.246;2023-12-20T02:39:19;14.60;;;5.33;;
68050;SDS011;54839;51.364;7.246;2023-12-20T02:41:46;11.70;;;6.87;;
68050;SDS011;54839;51.364;7.246;2023-12-20T02:44:11;11.50;;;6.93;;
68050;SDS011;54839;51.364;7.246;2023-12-20T02:46:37;15.07;;;7.13;;
68050;SDS011;54839;51.364;7.246;2023-12-20T02:49:02;17.80;;;8.00;;
68050;SDS011;54839;51.364;7.246;2023-12-20T02:51:28;8.60;;;7.23;;
68050;SDS011;54839;51.364;7.246;2023-12-20T02:53:54;13.30;;;6.43;;
68050;SDS011;54839;51.364;7.246;2023-12-20T02:56:19;12.43;;;6.10;;
68050;SDS011;54839;51.364;7.246;2023-12-20T02:58:45;15.80;;;7.73;;
68050;SDS011;54839;51.364;7.246;2023-12-20T03:01:10;8.90;;;5.47;;
68050;SDS011;54839;51.364;7.246;2023-12-20T03:03:36;13.93;;;7.13;;
68050;SDS011;54839;51.364;7.246;2023-12-20T03:06:01;4.70;;;3.70;;
68050;SDS011;54839;51.364;7.246;2023-12-20T03:08:27;17.03;;;6.80;;
68050;SDS011;54839;51.364;7.246;2023-12-20T03:10:52;13.07;;;6.20;;
68050;SDS011;54839;51.364;7.246;2023-12-20T03:13:18;14.10;;;5.97;;
68050;SDS011;54839;51.364;7.246;2023-12-20T03:15:44;15.53;;;6.40;;
68050;SDS011;54839;51.364;7.246;2023-12-20T03:18:10;15.97;;;6.60;;
68050;SDS011;54839;51.364;7.246;2023-12-20T03:20:36;17.20;;;4.77;;
68050;SDS011;54839;51.364;7.246;2023-12-20T03:23:01;8.07;;;4.30;;
68050;SDS011;54839;51.364;7.246;2023-12-20T03:25:27;11.60;;;5.40;;
68050;SDS011;54839;51.364;7.246;2023-12-20T03:27:52;12.03;;;7.63;;
68050;SDS011;54839;51.364;7.246;2023-12-20T03:30:18;9.67;;;5.57;;
68050;SDS011;54839;51.364;7.246;2023-12-20T03:32:44;9.23;;;5.50;;
68050;SDS011;54839;51.364;7.246;2023-12-20T03:35:09;12.13;;;6.17;;
68050;SDS011;54839;51.364;7.246;2023-12-20T03:37:35;11.20;;;6.90;;
68050;SDS011;54839;51.364;7.246;2023-12-20T03:40:01;17.37;;;8.07;;
68050;SDS011;54839;51.364;7.246;2023-12-20T03:42:27;18.03;;;7.73;;
68050;SDS011;54839;51.364;7.246;2023-12-20T03:44:52;12.83;;;8.53;;
68050;SDS011;54839;51.364;7.246;2023-12-20T03:47:18;21.60;;;8.03;;
68050;SDS011;54839;51.364;7.246;2023-12-20T03:49:43;11.63;;;5.20;;
68050;SDS011;54839;51.364;7.246;2023-12-20T03:52:09;18.30;;;9.07;;
68050;SDS011;54839;51.364;7.246;2023-12-20T03:54:35;20.80;;;10.53;;
68050;SDS011;54839;51.364;7.246;2023-12-20T03:57:00;20.60;;;8.67;;
68050;SDS011;54839;51.364;7.246;2023-12-20T03:59:26;18.93;;;9.83;;
68050;SDS011;54839;51.364;7.246;2023-12-20T04:01:51;18.47;;;10.53;;
68050;SDS011;54839;51.364;7.246;2023-12-20T04:04:17;19.33;;;10.40;;
68050;SDS011;54839;51.364;7.246;2023-12-20T04:06:43;17.90;;;10.17;;
68050;SDS011;54839;51.364;7.246;2023-12-20T04:09:08;21.87;;;10.80;;
68050;SDS011;54839;51.364;7.246;2023-12-20T04:11:34;14.80;;;8.20;;
68050;SDS011;54839;51.364;7.246;2023-12-20T04:14:00;13.10;;;7.67;;
68050;SDS011;54839;51.364;7.246;2023-12-20T04:16:25;19.30;;;10.10;;
68050;SDS011;54839;51.364;7.246;2023-12-20T04:18:51;21.63;;;8.50;;
68050;SDS011;54839;51.364;7.246;2023-12-20T04:21:17;17.77;;;8.63;;
68050;SDS011;54839;51.364;7.246;2023-12-20T04:23:43;12.60;;;7.40;;
68050;SDS011;54839;51.364;7.246;2023-12-20T04:26:08;19.30;;;8.90;;
68050;SDS011;54839;51.364;7.246;2023-12-20T04:28:34;18.93;;;8.37;;
68050;SDS011;54839;51.364;7.246;2023-12-20T04:31:00;18.30;;;8.47;;
68050;SDS011;54839;51.364;7.246;2023-12-20T04:33:25;19.30;;;8.17;;
68050;SDS011;54839;51.364;7.246;2023-12-20T04:35:51;29.23;;;9.07;;
68050;SDS011;54839;51.364;7.246;2023-12-20T04:38:16;13.80;;;6.70;;
68050;SDS011;54839;51.364;7.246;2023-12-20T04:40:42;17.33;;;8.37;;
68050;SDS011;54839;51.364;7.246;2023-12-20T04:43:07;19.10;;;8.73;;
68050;SDS011;54839;51.364;7.246;2023-12-20T04:45:34;16.60;;;9.50;;
68050;SDS011;54839;51.364;7.246;2023-12-20T04:47:59;15.87;;;8.10;;
68050;SDS011;54839;51.364;7.246;2023-12-20T04:50:25;25.53;;;7.57;;
68050;SDS011;54839;51.364;7.246;2023-12-20T04:52:51;15.33;;;8.40;;
68050;SDS011;54839;51.364;7.246;2023-12-20T04:55:17;16.80;;;8.83;;
68050;SDS011;54839;51.364;7.246;2023-12-20T04:57:42;14.83;;;7.23;;
68050;SDS011;54839;51.364;7.246;2023-12-20T05:00:08;13.60;;;8.33;;
68050;SDS011;54839;51.364;7.246;2023-12-20T05:02:37;15.00;;;6.43;;
68050;SDS011;54839;51.364;7.246;2023-12-20T05:05:03;10.37;;;7.23;;
68050;SDS011;54839;51.364;7.246;2023-12-20T05:07:29;21.77;;;8.53;;
68050;SDS011;54839;51.364;7.246;2023-12-20T05:09:54;16.83;;;7.17;;
68050;SDS011;54839;51.364;7.246;2023-12-20T05:12:20;22.27;;;10.00;;
68050;SDS011;54839;51.364;7.246;2023-12-20T05:14:46;14.80;;;6.40;;
68050;SDS011;54839;51.364;7.246;2023-12-20T05:17:11;20.57;;;8.60;;
68050;SDS011;54839;51.364;7.246;2023-12-20T05:19:37;18.23;;;10.10;;
68050;SDS011;54839;51.364;7.246;2023-12-20T05:22:02;14.70;;;7.53;;
68050;SDS011;54839;51.364;7.246;2023-12-20T05:24:28;19.53;;;8.53;;
68050;SDS011;54839;51.364;7.246;2023-12-20T05:26:54;13.80;;;7.47;;
68050;SDS011;54839;51.364;7.246;2023-12-20T05:29:20;11.10;;;6.70;;
68050;SDS011;54839;51.364;7.246;2023-12-20T05:31:45;18.60;;;7.87;;
68050;SDS011;54839;51.364;7.246;2023-12-20T05:34:11;12.47;;;6.20;;
68050;SDS011;54839;51.364;7.246;2023-12-20T05:36:36;11.97;;;6.50;;
68050;SDS011;54839;51.364;7.246;2023-12-20T05:39:02;19.90;;;9.00;;
68050;SDS011;54839;51.364;7.246;2023-12-20T05:41:30;14.73;;;5.47;;
68050;SDS011;54839;51.364;7.246;2023-12-20T05:43:56;21.13;;;10.80;;
68050;SDS011;54839;51.364;7.246;2023-12-20T05:46:23;12.93;;;7.97;;
68050;SDS011;54839;51.364;7.246;2023-12-20T05:48:49;24.40;;;8.17;;
68050;SDS011;54839;51.364;7.246;2023-12-20T05:51:14;12.33;;;8.43;;
68050;SDS011;54839;51.364;7.246;2023-12-20T05:53:40;11.50;;;6.23;;
68050;SDS011;54839;51.364;7.246;2023-12-20T05:56:06;10.20;;;5.43;;
68050;SDS011;54839;51.364;7.246;2023-12-20T05:58:32;26.03;;;9.27;;
68050;SDS011;54839;51.364;7.246;2023-12-20T06:00:58;14.43;;;7.13;;
68050;SDS011;54839;51.364;7.246;2023-12-20T06:03:23;13.77;;;8.30;;
68050;SDS011;54839;51.364;7.246;2023-12-20T06:05:49;13.53;;;9.83;;
68050;SDS011;54839;51.364;7.246;2023-12-20T06:08:14;26.90;;;8.90;;
68050;SDS011;54839;51.364;7.246;2023-12-20T06:10:40;16.20;;;8.73;;
68050;SDS011;54839;51.364;7.246;2023-12-20T06:13:05;17.83;;;8.13;;
68050;SDS011;54839;51.364;7.246;2023-12-20T06:15:32;13.00;;;5.73;;
68050;SDS011;54839;51.364;7.246;2023-12-20T06:17:57;10.83;;;5.27;;
68050;SDS011;54839;51.364;7.246;2023-12-20T06:20:23;24.33;;;8.07;;
68050;SDS011;54839;51.364;7.246;2023-12-20T06:22:49;18.87;;;7.17;;
68050;SDS011;54839;51.364;7.246;2023-12-20T06:25:14;19.30;;;6.30;;
68050;SDS011;54839;51.364;7.246;2023-12-20T06:27:40;13.50;;;5.57;;
68050;SDS011;54839;51.364;7.246;2023-12-20T06:30:06;20.43;;;5.70;;
68050;SDS011;54839;51.364;7.246;2023-12-20T06:32:34;22.53;;;7.70;;
68050;SDS011;54839;51.364;7.246;2023-12-20T06:34:59;16.97;;;6.27;;
68050;SDS011;54839;51.364;7.246;2023-12-20T06:37:25;15.90;;;5.73;;
68050;SDS011;54839;51.364;7.246;2023-12-20T06:39:51;12.50;;;7.90;;
68050;SDS011;54839;51.364;7.246;2023-12-20T06:42:16;15.70;;;6.00;;
68050;SDS011;54839;51.364;7.246;2023-12-20T06:44:42;18.07;;;6.57;;
68050;SDS011;54839;51.364;7.246;2023-12-20T06:47:08;14.20;;;5.80;;
68050;SDS011;54839;51.364;7.246;2023-12-20T06:49:34;12.40;;;5.10;;
68050;SDS011;54839;51.364;7.246;2023-12-20T06:51:59;20.40;;;7.70;;
68050;SDS011;54839;51.364;7.246;2023-12-20T06:54:25;9.80;;;4.40;;
68050;SDS011;54839;51.364;7.246;2023-12-20T06:56:50;14.73;;;7.77;;
68050;SDS011;54839;51.364;7.246;2023-12-20T06:59:16;19.43;;;7.40;;
68050;SDS011;54839;51.364;7.246;2023-12-20T07:01:42;13.73;;;6.67;;
68050;SDS011;54839;51.364;7.246;2023-12-20T07:04:08;12.80;;;6.53;;
68050;SDS011;54839;51.364;7.246;2023-12-20T07:06:34;16.00;;;5.80;;
68050;SDS011;54839;51.364;7.246;2023-12-20T07:08:59;16.97;;;7.17;;
68050;SDS011;54839;51.364;7.246;2023-12-20T07:11:25;16.40;;;5.57;;
68050;SDS011;54839;51.364;7.246;2023-12-20T07:13:51;19.03;;;7.10;;
68050;SDS011;54839;51.364;7.246;2023-12-20T07:16:16;14.00;;;6.30;;
68050;SDS011;54839;51.364;7.246;2023-12-20T07:18:42;12.30;;;4.80;;
68050;SDS011;54839;51.364;7.246;2023-12-20T07:21:08;11.50;;;4.43;;
68050;SDS011;54839;51.364;7.246;2023-12-20T07:23:33;14.30;;;5.67;;
68050;SDS011;54839;51.364;7.246;2023-12-20T07:25:59;18.07;;;6.80;;
68050;SDS011;54839;51.364;7.246;2023-12-20T07:28:24;17.03;;;5.60;;
68050;SDS011;54839;51.364;7.246;2023-12-20T07:30:50;12.87;;;5.10;;
68050;SDS011;54839;51.364;7.246;2023-12-20T07:33:16;10.23;;;4.83;;
68050;SDS011;54839;51.364;7.246;2023-12-20T07:35:41;10.50;;;5.67;;
68050;SDS011;54839;51.364;7.246;2023-12-20T07:38:07;14.40;;;5.17;;
68050;SDS011;54839;51.364;7.246;2023-12-20T07:40:32;17.33;;;6.60;;
68050;SDS011;54839;51.364;7.246;2023-12-20T07:42:58;11.43;;;5.00;;
68050;SDS011;54839;51.364;7.246;2023-12-20T07:45:23;12.73;;;5.97;;
68050;SDS011;54839;51.364;7.246;2023-12-20T07:47:49;13.03;;;5.00;;
68050;SDS011;54839;51.364;7.246;2023-12-20T07:50:15;22.57;;;6.30;;
68050;SDS011;54839;51.364;7.246;2023-12-20T07:52:41;15.67;;;5.07;;
68050;SDS011;54839;51.364;7.246;2023-12-20T07:55:07;12.80;;;6.70;;
68050;SDS011;54839;51.364;7.246;2023-12-20T07:57:32;20.43;;;6.50;;
68050;SDS011;54839;51.364;7.246;2023-12-20T07:59:58;17.93;;;6.30;;
68050;SDS011;54839;51.364;7.246;2023-12-20T08:02:23;11.53;;;5.33;;
68050;SDS011;54839;51.364;7.246;2023-12-20T08:04:50;8.43;;;3.40;;
68050;SDS011;54839;51.364;7.246;2023-12-20T08:07:16;18.07;;;6.40;;
68050;SDS011;54839;51.364;7.246;2023-12-20T08:09:41;15.60;;;6.03;;
68050;SDS011;54839;51.364;7.246;2023-12-20T08:12:08;15.73;;;5.37;;
68050;SDS011;54839;51.364;7.246;2023-12-20T08:14:34;22.73;;;6.57;;
68050;SDS011;54839;51.364;7.246;2023-12-20T08:17:00;14.87;;;6.50;;
68050;SDS011;54839;51.364;7.246;2023-12-20T08:19:25;12.10;;;5.10;;
68050;SDS011;54839;51.364;7.246;2023-12-20T08:21:51;11.77;;;4.63;;
68050;SDS011;54839;51.364;7.246;2023-12-20T08:24:16;17.00;;;4.00;;
68050;SDS011;54839;51.364;7.246;2023-12-20T08:26:42;16.27;;;6.60;;
68050;SDS011;54839;51.364;7.246;2023-12-20T08:29:07;9.63;;;4.93;;
68050;SDS011;54839;51.364;7.246;2023-12-20T08:31:33;9.07;;;5.10;;
68050;SDS011;54839;51.364;7.246;2023-12-20T08:33:59;14.80;;;5.07;;
68050;SDS011;54839;51.364;7.246;2023-12-20T08:36:25;10.90;;;5.07;;
68050;SDS011;54839;51.364;7.246;2023-12-20T08:38:51;10.10;;;5.17;;
68050;SDS011;54839;51.364;7.246;2023-12-20T08:41:17;12.07;;;5.90;;
68050;SDS011;54839;51.364;7.246;2023-12-20T08:43:43;12.33;;;6.50;;
68050;SDS011;54839;51.364;7.246;2023-12-20T08:46:09;14.03;;;6.00;;
68050;SDS011;54839;51.364;7.246;2023-12-20T08:48:35;11.50;;;5.03;;
68050;SDS011;54839;51.364;7.246;2023-12-20T08:51:00;22.00;;;6.07;;
68050;SDS011;54839;51.364;7.246;2023-12-20T08:53:26;15.63;;;4.03;;
68050;SDS011;54839;51.364;7.246;2023-12-20T08:55:53;12.13;;;4.90;;
68050;SDS011;54839;51.364;7.246;2023-12-20T08:58:19;19.80;;;7.23;;
68050;SDS011;54839;51.364;7.246;2023-12-20T09:00:45;4.00;;;3.60;;
68050;SDS011;54839;51.364;7.246;2023-12-20T09:03:10;23.27;;;4.70;;
68050;SDS011;54839;51.364;7.246;2023-12-20T09:05:36;13.77;;;6.53;;
68050;SDS011;54839;51.364;7.246;2023-12-20T09:08:02;15.23;;;5.90;;
68050;SDS011;54839;51.364;7.246;2023-12-20T09:10:27;18.17;;;6.30;;
68050;SDS011;54839;51.364;7.246;2023-12-20T09:12:53;18.27;;;5.63;;
68050;SDS011;54839;51.364;7.246;2023-12-20T09:15:22;9.40;;;5.50;;
68050;SDS011;54839;51.364;7.246;2023-12-20T09:17:49;20.63;;;6.53;;
68050;SDS011;54839;51.364;7.246;2023-12-20T09:20:15;10.53;;;4.47;;
68050;SDS011;54839;51.364;7.246;2023-12-20T09:22:40;17.20;;;4.90;;
68050;SDS011;54839;51.364;7.246;2023-12-20T09:25:07;13.77;;;4.43;;
68050;SDS011;54839;51.364;7.246;2023-12-20T09:27:33;9.57;;;4.60;;
68050;SDS011;54839;51.364;7.246;2023-12-20T09:29:59;11.13;;;5.37;;
68050;SDS011;54839;51.364;7.246;2023-12-20T09:32:25;7.47;;;5.03;;
68050;SDS011;54839;51.364;7.246;2023-12-20T09:34:50;12.43;;;3.37;;
68050;SDS011;54839;51.364;7.246;2023-12-20T09:37:16;13.07;;;4.73;;
68050;SDS011;54839;51.364;7.246;2023-12-20T09:39:42;9.50;;;4.83;;
68050;SDS011;54839;51.364;7.246;2023-12-20T09:42:08;14.87;;;4.43;;
68050;SDS011;54839;51.364;7.246;2023-12-20T09:44:41;9.43;;;4.63;;
68050;SDS011;54839;51.364;7.246;2023-12-20T09:47:09;10.23;;;3.50;;
68050;SDS011;54839;51.364;7.246;2023-12-20T09:49:35;12.90;;;3.37;;
68050;SDS011;54839;51.364;7.246;2023-12-20T09:52:02;15.57;;;7.07;;
68050;SDS011;54839;51.364;7.246;2023-12-20T09:54:32;11.10;;;3.50;;
68050;SDS011;54839;51.364;7.246;2023-12-20T09:56:58;13.77;;;4.17;;
68050;SDS011;54839;51.364;7.246;2023-12-20T09:59:23;13.90;;;3.40;;
68050;SDS011;54839;51.364;7.246;2023-12-20T10:01:49;21.33;;;3.80;;
68050;SDS011;54839;51.364;7.246;2023-12-20T10:04:17;17.23;;;5.17;;
68050;SDS011;54839;51.364;7.246;2023-12-20T10:06:42;9.77;;;4.67;;
68050;SDS011;54839;51.364;7.246;2023-12-20T10:09:09;14.53;;;6.10;;
68050;SDS011;54839;51.364;7.246;2023-12-20T10:11:36;11.80;;;3.10;;
68050;SDS011;54839;51.364;7.246;2023-12-20T10:14:02;14.67;;;6.27;;
68050;SDS011;54839;51.364;7.246;2023-12-20T10:16:28;14.20;;;4.67;;
68050;SDS011;54839;51.364;7.246;2023-12-20T10:18:54;19.83;;;3.90;;
68050;SDS011;54839;51.364;7.246;2023-12-20T10:21:22;13.37;;;4.03;;
68050;SDS011;54839;51.364;7.246;2023-12-20T10:23:48;12.80;;;5.13;;
68050;SDS011;54839;51.364;7.246;2023-12-20T10:26:24;18.73;;;4.20;;
68050;SDS011;54839;51.364;7.246;2023-12-20T10:28:55;9.23;;;3.77;;
68050;SDS011;54839;51.364;7.246;2023-12-20T10:34:00;13.23;;;3.90;;
68050;SDS011;54839;51.364;7.246;2023-12-20T10:36:27;8.47;;;3.40;;
68050;SDS011;54839;51.364;7.246;2023-12-20T10:38:54;5.23;;;2.40;;
68050;SDS011;54839;51.364;7.246;2023-12-20T10:41:30;17.63;;;3.60;;
68050;SDS011;54839;51.364;7.246;2023-12-20T10:44:00;10.90;;;4.30;;
68050;SDS011;54839;51.364;7.246;2023-12-20T10:46:33;8.40;;;4.10;;
68050;SDS011;54839;51.364;7.246;2023-12-20T10:48:59;19.00;;;3.67;;
68050;SDS011;54839;51.364;7.246;2023-12-20T10:51:27;15.10;;;3.70;;
68050;SDS011;54839;51.364;7.246;2023-12-20T10:53:54;12.93;;;5.13;;
68050;SDS011;54839;51.364;7.246;2023-12-20T10:59:30;14.63;;;4.20;;
68050;SDS011;54839;51.364;7.246;2023-12-20T11:01:58;9.10;;;3.30;;
68050;SDS011;54839;51.364;7.246;2023-12-20T11:04:44;6.77;;;2.87;;
68050;SDS011;54839;51.364;7.246;2023-12-20T11:07:19;7.93;;;2.40;;
68050;SDS011;54839;51.364;7.246;2023-12-20T11:10:01;6.37;;;2.73;;
68050;SDS011;54839;51.364;7.246;2023-12-20T11:12:44;10.83;;;5.10;;
68050;SDS011;54839;51.364;7.246;2023-12-20T11:15:16;6.90;;;3.13;;
68050;SDS011;54839;51.364;7.246;2023-12-20T11:17:44;13.97;;;5.17;;
68050;SDS011;54839;51.364;7.246;2023-12-20T11:20:11;11.50;;;4.40;;
68050;SDS011;54839;51.364;7.246;2023-12-20T11:22:37;16.67;;;4.53;;
68050;SDS011;54839;51.364;7.246;2023-12-20T11:25:10;15.17;;;3.60;;
68050;SDS011;54839;51.364;7.246;2023-12-20T11:27:36;12.33;;;6.07;;
68050;SDS011;54839;51.364;7.246;2023-12-20T11:30:06;12.23;;;3.93;;
68050;SDS011;54839;51.364;7.246;2023-12-20T11:32:34;15.03;;;5.93;;
68050;SDS011;54839;51.364;7.246;2023-12-20T11:35:17;15.47;;;4.13;;
68050;SDS011;54839;51.364;7.246;2023-12-20T11:37:45;12.23;;;4.50;;
68050;SDS011;54839;51.364;7.246;2023-12-20T11:40:13;9.10;;;3.87;;
68050;SDS011;54839;51.364;7.246;2023-12-20T11:42:43;10.43;;;3.70;;
68050;SDS011;54839;51.364;7.246;2023-12-20T11:45:10;15.10;;;3.43;;
68050;SDS011;54839;51.364;7.246;2023-12-20T11:47:40;8.17;;;4.03;;
68050;SDS011;54839;51.364;7.246;2023-12-20T11:50:10;16.30;;;4.17;;
68050;SDS011;54839;51.364;7.246;2023-12-20T11:52:36;14.33;;;4.90;;
68050;SDS011;54839;51.364;7.246;2023-12-20T11:55:02;18.57;;;5.10;;
68050;SDS011;54839;51.364;7.246;2023-12-20T11:57:28;7.90;;;3.90;;
68050;SDS011;54839;51.364;7.246;2023-12-20T11:59:54;9.30;;;3.60;;
68050;SDS011;54839;51.364;7.246;2023-12-20T12:02:21;8.13;;;3.00;;
68050;SDS011;54839;51.364;7.246;2023-12-20T12:04:48;15.13;;;6.40;;
68050;SDS011;54839;51.364;7.246;2023-12-20T12:07:14;18.10;;;5.50;;
68050;SDS011;54839;51.364;7.246;2023-12-20T12:09:39;10.40;;;3.30;;
68050;SDS011;54839;51.364;7.246;2023-12-20T12:12:05;10.93;;;4.40;;
68050;SDS011;54839;51.364;7.246;2023-12-20T12:14:31;18.13;;;5.13;;
68050;SDS011;54839;51.364;7.246;2023-12-20T12:16:57;6.77;;;3.47;;
68050;SDS011;54839;51.364;7.246;2023-12-20T12:19:23;16.07;;;4.67;;
68050;SDS011;54839;51.364;7.246;2023-12-20T12:21:50;8.30;;;3.90;;
68050;SDS011;54839;51.364;7.246;2023-12-20T12:24:19;8.20;;;3.50;;
68050;SDS011;54839;51.364;7.246;2023-12-20T12:26:53;13.67;;;4.23;;
68050;SDS011;54839;51.364;7.246;2023-12-20T12:29:22;7.97;;;2.80;;
68050;SDS011;54839;51.364;7.246;2023-12-20T12:31:49;10.30;;;4.83;;
68050;SDS011;54839;51.364;7.246;2023-12-20T12:34:15;8.70;;;4.10;;
68050;SDS011;54839;51.364;7.246;2023-12-20T12:36:41;16.20;;;5.10;;
68050;SDS011;54839;51.364;7.246;2023-12-20T12:39:06;6.43;;;2.50;;
68050;SDS011;54839;51.364;7.246;2023-12-20T12:41:32;12.43;;;4.30;;
68050;SDS011;54839;51.364;7.246;2023-12-20T12:43:58;8.00;;;3.70;;
68050;SDS011;54839;51.364;7.246;2023-12-20T12:46:24;11.63;;;4.70;;
68050;SDS011;54839;51.364;7.246;2023-12-20T12:48:49;7.30;;;4.17;;
68050;SDS011;54839;51.364;7.246;2023-12-20T12:51:15;13.97;;;5.23;;
68050;SDS011;54839;51.364;7.246;2023-12-20T12:53:41;8.63;;;4.40;;
68050;SDS011;54839;51.364;7.246;2023-12-20T12:56:06;11.47;;;4.60;;
68050;SDS011;54839;51.364;7.246;2023-12-20T12:58:32;7.30;;;4.03;;
68050;SDS011;54839;51.364;7.246;2023-12-20T13:00:58;11.90;;;4.17;;
68050;SDS011;54839;51.364;7.246;2023-12-20T13:03:24;9.70;;;3.60;;
68050;SDS011;54839;51.364;7.246;2023-12-20T13:05:50;13.47;;;6.10;;
68050;SDS011;54839;51.364;7.246;2023-12-20T13:08:15;15.50;;;4.40;;
68050;SDS011;54839;51.364;7.246;2023-12-20T13:10:41;12.10;;;4.50;;
68050;SDS011;54839;51.364;7.246;2023-12-20T13:13:07;16.50;;;5.30;;
68050;SDS011;54839;51.364;7.246;2023-12-20T13:15:32;7.40;;;4.40;;
68050;SDS011;54839;51.364;7.246;2023-12-20T13:17:58;12.43;;;5.60;;
68050;SDS011;54839;51.364;7.246;2023-12-20T13:20:25;17.53;;;5.33;;
68050;SDS011;54839;51.364;7.246;2023-12-20T13:22:50;12.07;;;4.00;;
68050;SDS011;54839;51.364;7.246;2023-12-20T13:25:15;10.60;;;4.93;;
68050;SDS011;54839;51.364;7.246;2023-12-20T13:27:41;7.47;;;4.23;;
68050;SDS011;54839;51.364;7.246;2023-12-20T13:30:07;19.50;;;5.77;;
68050;SDS011;54839;51.364;7.246;2023-12-20T13:32:32;14.47;;;5.30;;
68050;SDS011;54839;51.364;7.246;2023-12-20T13:34:58;9.57;;;5.60;;
68050;SDS011;54839;51.364;7.246;2023-12-20T13:37:23;15.70;;;5.07;;
68050;SDS011;54839;51.364;7.246;2023-12-20T13:39:49;11.33;;;4.27;;
68050;SDS011;54839;51.364;7.246;2023-12-20T13:42:14;5.90;;;4.07;;
68050;SDS011;54839;51.364;7.246;2023-12-20T13:44:40;6.97;;;4.10;;
68050;SDS011;54839;51.364;7.246;2023-12-20T13:47:06;5.43;;;3.53;;
68050;SDS011;54839;51.364;7.246;2023-12-20T13:49:31;11.50;;;4.97;;
68050;SDS011;54839;51.364;7.246;2023-12-20T13:51:57;4.77;;;3.67;;
68050;SDS011;54839;51.364;7.246;2023-12-20T13:54:23;6.70;;;4.77;;
68050;SDS011;54839;51.364;7.246;2023-12-20T13:56:49;6.50;;;4.00;;
68050;SDS011;54839;51.364;7.246;2023-12-20T13:59:15;6.67;;;4.23;;
68050;SDS011;54839;51.364;7.246;2023-12-20T14:01:41;11.83;;;5.43;;
68050;SDS011;54839;51.364;7.246;2023-12-20T14:04:06;7.47;;;5.27;;
68050;SDS011;54839;51.364;7.246;2023-12-20T14:06:32;10.30;;;5.90;;
68050;SDS011;54839;51.364;7.246;2023-12-20T14:08:58;4.57;;;3.03;;
68050;SDS011;54839;51.364;7.246;2023-12-20T14:11:27;6.00;;;5.00;;
68050;SDS011;54839;51.364;7.246;2023-12-20T14:13:52;9.50;;;4.13;;
68050;SDS011;54839;51.364;7.246;2023-12-20T14:16:22;8.57;;;3.50;;
68050;SDS011;54839;51.364;7.246;2023-12-20T14:18:48;6.80;;;5.70;;
68050;SDS011;54839;51.364;7.246;2023-12-20T14:21:14;7.40;;;4.33;;
68050;SDS011;54839;51.364;7.246;2023-12-20T14:23:39;6.03;;;3.80;;
68050;SDS011;54839;51.364;7.246;2023-12-20T14:26:05;7.47;;;4.60;;
68050;SDS011;54839;51.364;7.246;2023-12-20T14:28:30;8.83;;;4.67;;
68050;SDS011;54839;51.364;7.246;2023-12-20T14:30:56;11.50;;;6.50;;
68050;SDS011;54839;51.364;7.246;2023-12-20T14:33:21;8.47;;;5.40;;
68050;SDS011;54839;51.364;7.246;2023-12-20T14:35:47;7.30;;;4.83;;